In Rescue
 
Open Full Screen Window  High Contrast Mode
March 19, 2019 7:33 PM EDT
Weather Information
Wind Direction
  ---
Wind Speed
  00 kt (0 mph)
Wind Gust
  00 kt (0 mph)
Altimeter
30.34 in
Visibility
10 SM
Temperature
06° C
43° F
Dewpoint
-03° C
27° F
Humidity
53%
Sky Condition
Scattered @ 5,000 ft
VFR

METAR KAXV 192333Z AUTO 00000KT 10SM SCT050 06/M03 A3034 RMK AO2

FAA Disclaimer: The data displayed is for advisory purposes only and is not to be used for flight planning or operations.